Terminal Aerodrome Forecast
Issued by NWS

Home | Current Version | Previous Version | Text Only | Print | Product List | Glossary On
Versions: 1 2 3 4 5 6 7 8 9 10 11 12 13 14 15
000
FTUS45 KGGW 280500
TAFSDY
TAF
KSDY 280528Z 2806/2906 00000KT P6SM BKN100
     FM281200 VRB06KT 5SM BR VCSH BKN070
     FM281500 30008KT P6SM VCSH BKN070
     FM281800 32009KT P6SM BKN060
     FM290000 36015G25KT P6SM VCSH BKN070
      AMD LTD TO CLD VIS AND WIND=

USA.gov is the U.S. government's official web portal to all federal, state and local government web resources and services.